Nearby METAR Reports

 

KLXT - Lees Summit Muni, Missouri, USA
Distance from station: E 5mi, 9km
Updated: Tue, 18-Sep-2018 9:53pm CDT
Clear
Clear
 Wind from S
Wind: S 8 mph , 13 km/h
Temperature: 82°F , 28°C
Heat Index: 86°F , 30°C
Dew Point: 72°F , 22°C
Humidity: 70%
Barometer: 29.92 inHg , 1013.2 hPa
Clouds: Clear
Visibility: 10 miles , 16 km
2018/09/19 02:53 KLXT 190253Z AUTO 19007KT 10SM CLR 28/22 A2992 RMK AO2 SLP121 T02780217 53009
KMKC - Kansas City/Dntn, Missouri, USA
Distance from station: NW 12mi, 19km
Updated: Tue, 18-Sep-2018 9:54pm CDT
Clear
Clear
 Wind from SSW
Wind: SSW 8 mph , 13 km/h
Temperature: 84°F , 29°C
Heat Index: 88°F , 31°C
Dew Point: 70°F , 21°C
Humidity: 62%
Barometer: 29.90 inHg , 1012.5 hPa
Clouds: Clear
Visibility: 10 miles , 16 km
2018/09/19 02:54 KMKC 190254Z 20007KT 10SM CLR 29/21 A2990 RMK AO2 SLP114 T02890206 53012
 
KIXD - Olathe/Industria, Kansas, USA
Distance from station: WSW 25mi, 41km
Updated: Tue, 18-Sep-2018 9:53pm CDT
Clear
Clear
 Wind from SSE
Wind: SSE 6 mph , 9 km/h
Temperature: 77°F , 25°C
Dew Point: 72°F , 22°C
Humidity: 83%
Barometer: 29.92 inHg , 1013.2 hPa
Clouds: Clear
Visibility: 10 miles , 16 km
2018/09/19 02:53 KIXD 190253Z 15005KT 10SM CLR 25/22 A2992 RMK AO2 SLP121 T02500217 53009
KMCI - Kansas City/Intl, Missouri, USA
Distance from station: NW 26mi, 42km
Updated: Tue, 18-Sep-2018 9:53pm CDT
Few Clouds
Few Clouds
 Wind from ENE
Wind: ENE 7 mph , 11 km/h
Temperature: 79°F , 26°C
Dew Point: 70°F , 21°C
Humidity: 74%
Barometer: 29.92 inHg , 1013.2 hPa
Clouds: Few Clouds
Visibility: 10 miles , 16 km
Cloud details: Few Clouds 25000 ft
2018/09/19 02:53 KMCI 190253Z 06006KT 10SM FEW250 26/21 A2992 RMK AO2 SLP118 T02610206 53013
 
KRCM - Warrensburg Skyh, Missouri, USA
Distance from station: ESE 38mi, 62km
Updated: Tue, 18-Sep-2018 10:15pm CDT
Clear
Clear
 Wind from SSE
Wind: SSE 5 mph , 7 km/h
Temperature: 77°F , 25°C
Dew Point: 70°F , 21°C
Humidity: 79%
Barometer: 29.92 inHg , 1013.2 hPa
Clouds: Clear
Visibility: 10 miles , 16 km
2018/09/19 03:15 KRCM 190315Z AUTO 15004KT 10SM CLR 25/21 A2992 RMK AO2
KLWC - Lawrence, Kansas, USA
Distance from station: W 40mi, 65km
Updated: Tue, 18-Sep-2018 9:52pm CDT
Clear
Clear
 Wind from ESE
Wind: ESE 5 mph , 7 km/h
Temperature: 73°F , 23°C
Dew Point: 72°F , 22°C
Humidity: 94%
Barometer: 29.90 inHg , 1012.5 hPa
Clouds: Clear
Visibility: 10 miles , 16 km
2018/09/19 02:52 KLWC 190252Z AUTO 12004KT 10SM CLR 23/22 A2990 RMK AO2 SLP116 T02330217 53010
 
KSZL - Whiteman Afb, Missouri, USA
Distance from station: ESE 53mi, 86km
Updated: Tue, 18-Sep-2018 9:56pm CDT
Clear
Clear
 Wind from S
Wind: S 5 mph , 7 km/h
Temperature: 77°F , 25°C
Dew Point: 72°F , 22°C
Humidity: 83%
Barometer: 29.89 inHg , 1012.2 hPa
Clouds: Clear
Visibility: 10 miles , 16 km
2018/09/19 02:56 KSZL 190256Z 17004KT 10SM CLR 25/22 A2989 RMK AO2A SLP116 T02530222 53009
KSTJ - St. Joseph, Missouri, USA
Distance from station: NNW 59mi, 95km
Updated: Tue, 18-Sep-2018 9:53pm CDT
Clear
Clear
 Wind from E
Wind: E 7 mph , 11 km/h
Temperature: 75°F , 24°C
Dew Point: 72°F , 22°C
Humidity: 89%
Barometer: 29.91 inHg , 1012.9 hPa
Clouds: Clear
Visibility: 10 miles , 16 km
2018/09/19 02:53 KSTJ 190253Z AUTO 10006KT 10SM CLR 24/22 A2991 RMK AO2 SLP118 T02440222 51012
 
KGLY - Clinton, Missouri, USA
Distance from station: SE 61mi, 98km
Updated: Tue, 18-Sep-2018 9:55pm CDT
Clear
Clear
 Wind from S
Wind: S 3 mph , 6 km/h
Temperature: 75°F , 24°C
Dew Point: 72°F , 22°C
Humidity: 89%
Barometer: 29.93 inHg , 1013.5 hPa
Clouds: Clear
Visibility: 10 miles , 16 km
2018/09/19 02:55 KGLY 190255Z AUTO 17003KT 10SM CLR 24/22 A2993 RMK AO2
KFOE - Topeka/Forbes, Kansas, USA
Distance from station: W 64mi, 103km
Updated: Tue, 18-Sep-2018 9:53pm CDT
Clear
Clear
 Wind from SE
Wind: SE 5 mph , 7 km/h
Temperature: 79°F , 26°C
Dew Point: 70°F , 21°C
Humidity: 74%
Barometer: 29.90 inHg , 1012.5 hPa
Clouds: Clear
Visibility: 10 miles , 16 km
2018/09/19 02:53 KFOE 190253Z 14004KT 10SM CLR 26/21 A2990 RMK AO2 SLP114 T02560211 53009
 
KDMO - Sedalia, Missouri, USA
Distance from station: ESE 72mi, 116km
Updated: Tue, 18-Sep-2018 9:53pm CDT
Clear
Clear
 Wind from E
Wind: E 6 mph , 9 km/h
Temperature: 75°F , 24°C
Dew Point: 72°F , 22°C
Humidity: 89%
Barometer: 29.95 inHg , 1014.2 hPa
Clouds: Clear
Visibility: 10 miles , 16 km
2018/09/19 02:53 KDMO 190253Z AUTO 09005KT 10SM CLR 24/22 A2995 RMK AO2 SLP133 T02390222 53010
KCDJ - Chillicothe, Missouri, USA
Distance from station: NE 74mi, 120km
Updated: Tue, 18-Sep-2018 9:52pm CDT

 Wind from varies
Wind: varies 5 mph , 7 km/h
Temperature: 73°F , 23°C
Dew Point: 72°F , 22°C
Humidity: 94%
Barometer: 29.97 inHg , 1014.9 hPa
2018/09/19 02:52 KCDJ 190252Z AUTO VRB04KT 23/22 A2997 RMK AO1 SLP136 T02330222 53015
 
KFNB - Falls City/Brenn, Nebraska, USA
Distance from station: NW 96mi, 154km
Updated: Tue, 18-Sep-2018 9:53pm CDT
Clear
Clear
 Wind from ESE
Wind: ESE 8 mph , 13 km/h
Temperature: 72°F , 22°C
Dew Point: 68°F , 20°C
Humidity: 88%
Barometer: 29.89 inHg , 1012.2 hPa
Clouds: Clear
Visibility: 10 miles , 16 km
2018/09/19 02:53 KFNB 190253Z AUTO 12007KT 10SM CLR 22/20 A2989 RMK AO2 SLP112 T02170200 50002
KVER - Boonville, Missouri, USA
Distance from station: E 96mi, 154km
Updated: Tue, 18-Sep-2018 9:55pm CDT
Clear
Clear
 Wind from SSE
Wind: SSE 3 mph , 6 km/h
Temperature: 75°F , 24°C
Dew Point: 70°F , 21°C
Humidity: 83%
Barometer: 29.93 inHg , 1013.5 hPa
Clouds: Clear
Visibility: 10 miles , 16 km
2018/09/19 02:55 KVER 190255Z AUTO 15003KT 10SM CLR 24/21 A2993 RMK AO2 T02360207